بيروت, لبنان

10:43 AM EEST on أعس×س 01, 2015 (GMT +0300)
Beirut International | | Change Station
CLOSE
Current Station
Airport
Location: Beirut,
Elevation: 62 ft
Nearby Weather Stations

Elev 62 ft 33.82 °N, 35.49 °E | Updated 43 minutes ago

Partly Cloudy
غائم جزئياً
84 °F
Feels Like 91 °F
N
7
ريح متغير ريح from غرب

هذا اليوم
High -- | Low -- °F
--% Chance of Precip.
Yesterday
High -- | Low -- °F
Precip. -- في
5:49 AM 7:38 PM
بدر, 99% visible
الضغط 29.83 في
وضوح الرؤية 3.1 أميال
سحابات Few 2600 ft
Few 20000 ft
مؤشر الحرارة 91 °F
نقطة الندى 73 °F
الرطوبة 70%
Rainfall 0.00 في
عمق الثلج Not available.
الأشعة فوق البنفسجية 8 out of 12
Pollen Not available.
جودة الهواء Not available.
Flu Activity Not available.
METAR OLBA 010700Z 26006KT 5000 BR FEW026 FEW200 29/23 Q1010

More Conditions Fewer Conditions

الضغط 29.83 في
وضوح الرؤية 3.1 أميال
سحابات Few 2600 ft
Few 20000 ft
مؤشر الحرارة 91 °F
نقطة الندى 73 °F
الرطوبة 70%
Rainfall 0.00 في
عمق الثلج Not available.
الأشعة فوق البنفسجية 8 out of 12
Pollen Not available.
جودة الهواء Not available.
Flu Activity Not available.
METAR OLBA 010700Z 26006KT 5000 BR FEW026 FEW200 29/23 Q1010

More Conditions Fewer Conditions

10-Day Weather Forecast

×

Almanac

علم الفلك

Aug. 01, 2015 Rise Set
Actual Time
Civil Twilight
Nautical Twilight
Astronomical Twilight
قمر
Length Of Visible Light
طول الیوم
Tomorrow will be .
, % of the Moon is Illuminated

Today's Extremes

Country Highs Country Lows

Community

WunderPhotos

Upload Photos

1,842,905 photos uploaded!

WunderBlogs® & News

Nearby

جودة الهواء

  جودة الهواء AQ Index Pollutant
Not available.

عمق الثلج

Station Depth Elevation

Earthquake Activity

City Distance Mag. Time & Date
Minimum magnitude displayed is 2.5.

Coastal Water Temperatures

مكان درجات الحرارة

Stations

Nearby Weather Stations

Station Location الحرارة رياح باردة نقطة الندى الرطوبة ريح Precip. Elev تحديث Type